createdAt,value
2022-09-01T00:01:50.259Z,66.00
2022-09-01T00:04:20.721Z,65.60
2022-09-01T00:06:49.668Z,66.62
2022-09-01T00:09:20.132Z,66.82
2022-09-01T00:11:51.322Z,66.68
2022-09-01T00:14:29.649Z,66.84
2022-09-01T00:16:59.753Z,67.26
2022-09-01T00:19:29.183Z,67.48
2022-09-01T00:21:57.667Z,67.92
2022-09-01T00:24:27.187Z,68.51
2022-09-01T00:26:57.090Z,68.26
2022-09-01T00:29:26.809Z,68.16
2022-09-01T00:31:55.851Z,68.51
2022-09-01T00:34:24.607Z,68.68
2022-09-01T00:36:53.157Z,68.76
2022-09-01T00:39:21.683Z,68.54
2022-09-01T00:41:51.377Z,68.58
2022-09-01T00:44:23.641Z,68.87
2022-09-01T00:46:55.916Z,69.28
2022-09-01T00:49:31.590Z,69.06
2022-09-01T00:52:07.455Z,68.74
2022-09-01T00:54:39.368Z,69.09
2022-09-01T00:57:09.381Z,69.19
2022-09-01T00:59:41.472Z,69.48
2022-09-01T01:02:10.958Z,69.65
2022-09-01T01:04:43.308Z,69.18
2022-09-01T01:07:13.268Z,69.74
2022-09-01T01:09:43.875Z,69.73
2022-09-01T01:12:17.782Z,69.65
2022-09-01T01:14:49.863Z,69.52
2022-09-01T01:17:19.790Z,69.94
2022-09-01T01:20:09.742Z,69.70
2022-09-01T01:23:02.326Z,69.73
2022-09-01T01:25:34.201Z,70.18
2022-09-01T01:28:09.358Z,70.45
2022-09-01T01:30:39.472Z,70.72
2022-09-01T01:33:08.783Z,70.29
2022-09-01T01:35:37.527Z,70.18
2022-09-01T01:38:07.425Z,70.59
2022-09-01T01:40:37.523Z,70.77
2022-09-01T01:43:06.373Z,70.85
2022-09-01T01:45:34.982Z,70.67
2022-09-01T01:48:08.299Z,71.47
2022-09-01T01:50:38.531Z,71.38
2022-09-01T01:53:11.164Z,71.32
2022-09-01T01:55:43.285Z,71.53
2022-09-01T01:58:14.467Z,71.69
2022-09-01T02:00:46.405Z,71.54
2022-09-01T02:03:18.473Z,71.15
2022-09-01T02:05:48.999Z,71.52
2022-09-01T02:08:20.255Z,72.25
2022-09-01T02:10:52.304Z,71.69
2022-09-01T02:13:30.609Z,72.25
2022-09-01T02:16:01.995Z,72.22
2022-09-01T02:18:35.459Z,72.51
2022-09-01T02:21:09.363Z,72.44
2022-09-01T02:23:39.897Z,72.44
2022-09-01T02:26:17.980Z,72.77
2022-09-01T02:28:53.631Z,73.14
2022-09-01T02:31:24.370Z,72.88
2022-09-01T02:33:53.694Z,72.72
2022-09-01T02:36:24.668Z,73.90
2022-09-01T02:38:56.537Z,73.32
2022-09-01T02:41:26.674Z,73.61
2022-09-01T02:43:55.267Z,73.49
2022-09-01T02:46:23.689Z,73.72
2022-09-01T02:48:54.142Z,74.42
2022-09-01T02:51:25.137Z,73.84
2022-09-01T02:53:54.523Z,74.42
2022-09-01T02:56:25.717Z,74.36
2022-09-01T02:58:55.518Z,74.41
2022-09-01T03:01:26.892Z,73.83
2022-09-01T03:03:58.316Z,74.01
2022-09-01T03:06:27.794Z,74.22
2022-09-01T03:08:59.083Z,74.82
2022-09-01T03:11:29.321Z,74.80
2022-09-01T03:13:57.607Z,74.97
2022-09-01T03:16:26.001Z,75.40
2022-09-01T03:18:54.708Z,75.37
2022-09-01T03:21:23.396Z,75.89
2022-09-01T03:23:53.214Z,75.93
2022-09-01T03:26:23.803Z,75.60
2022-09-01T03:28:58.741Z,76.28
2022-09-01T03:31:30.974Z,76.26
2022-09-01T03:34:00.430Z,75.94
2022-09-01T03:36:30.494Z,75.79
2022-09-01T03:38:58.693Z,76.26
2022-09-01T03:41:30.347Z,76.72
2022-09-01T03:43:59.621Z,76.67
2022-09-01T03:46:36.900Z,76.80
2022-09-01T03:49:07.617Z,77.11
2022-09-01T03:51:37.836Z,76.34
2022-09-01T03:54:06.592Z,76.33
2022-09-01T03:56:35.034Z,76.15
2022-09-01T03:59:03.918Z,76.22
2022-09-01T04:01:34.380Z,76.42
2022-09-01T04:04:07.410Z,76.44
2022-09-01T04:06:37.504Z,76.39
2022-09-01T04:09:06.387Z,76.63
2022-09-01T04:11:36.612Z,76.76
2022-09-01T04:14:06.026Z,76.54
2022-09-01T04:17:05.569Z,76.66
2022-09-01T04:19:37.964Z,76.80
2022-09-01T04:22:07.947Z,76.56
2022-09-01T04:24:36.832Z,76.89
2022-09-01T04:27:07.309Z,76.91
2022-09-01T04:29:36.828Z,76.79
2022-09-01T04:32:12.008Z,76.39
2022-09-01T04:34:41.370Z,76.22
2022-09-01T04:37:12.563Z,76.09
2022-09-01T04:39:49.655Z,76.40
2022-09-01T04:42:23.508Z,75.76
2022-09-01T04:44:53.500Z,76.10
2022-09-01T04:47:29.546Z,75.75
2022-09-01T04:49:59.947Z,76.07
2022-09-01T04:52:28.799Z,75.95
2022-09-01T04:54:57.592Z,75.57
2022-09-01T04:57:31.619Z,75.65
2022-09-01T05:00:02.032Z,75.63
2022-09-01T05:02:30.675Z,75.36
2022-09-01T05:04:59.064Z,75.32
2022-09-01T05:07:27.550Z,75.05
2022-09-01T05:10:01.089Z,74.88
2022-09-01T05:12:30.146Z,74.79
2022-09-01T05:14:58.691Z,74.53
2022-09-01T05:17:28.587Z,74.45
2022-09-01T05:19:57.658Z,74.77
2022-09-01T05:22:26.599Z,74.72
2022-09-01T05:24:55.512Z,74.42
2022-09-01T05:27:25.255Z,74.22
2022-09-01T05:29:53.781Z,73.77
2022-09-01T05:32:25.406Z,73.78
2022-09-01T05:34:54.309Z,73.66
2022-09-01T05:37:22.880Z,73.62
2022-09-01T05:39:51.867Z,73.40
2022-09-01T05:42:21.401Z,73.42
2022-09-01T05:44:49.606Z,73.05
2022-09-01T05:47:25.658Z,73.08
2022-09-01T05:49:56.228Z,72.82
2022-09-01T05:52:25.779Z,72.79
2022-09-01T05:54:56.379Z,72.02
2022-09-01T05:57:34.585Z,71.69
2022-09-01T06:00:12.604Z,70.79
2022-09-01T06:02:42.599Z,70.96
2022-09-01T06:05:13.362Z,70.55
2022-09-01T06:07:42.383Z,70.67
2022-09-01T06:10:12.393Z,70.58
2022-09-01T06:12:41.041Z,70.72
2022-09-01T06:15:15.360Z,70.14
2022-09-01T06:17:45.815Z,69.63
2022-09-01T06:20:18.241Z,69.93
2022-09-01T06:22:48.400Z,69.45
2022-09-01T06:25:17.952Z,69.48
2022-09-01T06:27:47.685Z,69.19
2022-09-01T06:30:23.542Z,68.56
2022-09-01T06:32:53.607Z,68.14
2022-09-01T06:35:29.371Z,67.16
2022-09-01T06:37:58.179Z,66.99
2022-09-01T06:40:28.901Z,67.14
2022-09-01T06:43:00.255Z,66.41
2022-09-01T06:45:29.048Z,64.05
2022-09-01T06:47:57.649Z,65.18
2022-09-01T06:53:37.041Z,65.07
2022-09-01T06:56:06.291Z,64.22
2022-09-01T06:58:36.436Z,64.55
2022-09-01T07:01:14.367Z,64.97
2022-09-01T07:03:44.012Z,64.77
2022-09-01T07:09:21.511Z,64.88
2022-09-01T07:12:24.508Z,64.37
2022-09-01T07:17:32.289Z,63.61
2022-09-01T07:23:06.527Z,61.34
2022-09-01T07:28:39.135Z,63.17
2022-09-01T07:39:55.527Z,61.63
2022-09-01T07:45:28.266Z,59.14
2022-09-01T07:48:02.982Z,58.29
2022-09-01T07:51:07.479Z,56.92
2022-09-01T07:53:22.860Z,56.82
2022-09-01T07:55:53.176Z,57.86
2022-09-01T07:58:26.079Z,56.82
2022-09-01T08:00:56.001Z,56.58
2022-09-01T08:03:26.470Z,57.53
2022-09-01T08:05:57.632Z,58.18
2022-09-01T08:08:28.963Z,58.22
2022-09-01T08:11:06.841Z,56.26
2022-09-01T08:13:41.721Z,56.26
2022-09-01T08:16:18.590Z,56.27
2022-09-01T08:18:49.309Z,57.21
2022-09-01T08:21:21.838Z,56.07
2022-09-01T08:23:51.781Z,56.71
2022-09-01T08:26:22.836Z,55.92
2022-09-01T08:28:55.302Z,52.13
2022-09-01T08:31:30.632Z,54.40
2022-09-01T08:33:59.439Z,54.38
2022-09-01T08:36:28.176Z,51.13
2022-09-01T08:38:56.580Z,50.93
2022-09-01T08:41:36.095Z,52.19
2022-09-01T08:44:11.046Z,51.84
2022-09-01T08:46:42.635Z,52.28
2022-09-01T08:49:31.396Z,52.83
2022-09-01T08:52:16.085Z,52.68
2022-09-01T08:54:47.552Z,52.86
2022-09-01T08:57:20.569Z,53.79
2022-09-01T08:59:49.590Z,54.17
2022-09-01T09:02:33.501Z,54.33
2022-09-01T09:05:22.396Z,53.35
2022-09-01T09:08:07.043Z,54.31
2022-09-01T09:10:43.374Z,54.27
2022-09-01T09:13:19.543Z,52.04
2022-09-01T09:15:53.077Z,48.49
2022-09-01T09:18:39.143Z,47.02
2022-09-01T09:21:14.147Z,48.70
2022-09-01T09:23:44.560Z,50.06
2022-09-01T09:26:21.864Z,50.12
2022-09-01T09:28:51.200Z,48.93
2022-09-01T09:31:37.629Z,47.25
2022-09-01T09:34:18.261Z,43.98
2022-09-01T09:36:53.979Z,44.11
2022-09-01T09:39:24.034Z,43.55
2022-09-01T09:42:08.567Z,43.97
2022-09-01T09:44:43.129Z,44.23
2022-09-01T09:47:33.401Z,44.56
2022-09-01T09:50:20.176Z,45.61
2022-09-01T09:52:50.547Z,45.67
2022-09-01T09:55:28.281Z,44.24
2022-09-01T09:58:00.147Z,43.33
2022-09-01T10:00:30.428Z,44.36
2022-09-01T10:03:07.853Z,44.81
2022-09-01T10:05:43.270Z,46.30
2022-09-01T10:08:15.970Z,43.09
2022-09-01T10:10:58.342Z,42.84
2022-09-01T10:13:28.996Z,42.56
2022-09-01T10:15:59.186Z,42.29
2022-09-01T10:18:36.953Z,41.91
2022-09-01T10:21:10.724Z,40.58
2022-09-01T10:23:41.680Z,41.08
2022-09-01T10:26:14.778Z,41.77
2022-09-01T10:28:49.906Z,42.35
2022-09-01T10:31:19.973Z,40.34
2022-09-01T10:33:49.062Z,39.67
2022-09-01T10:36:17.700Z,39.29
2022-09-01T10:38:54.319Z,39.71
2022-09-01T10:41:47.754Z,40.20
2022-09-01T10:44:22.525Z,39.60
2022-09-01T10:46:51.590Z,40.83
2022-09-01T10:49:37.438Z,39.95
2022-09-01T10:52:12.998Z,38.60
2022-09-01T10:54:58.848Z,39.15
2022-09-01T10:57:42.410Z,39.23
2022-09-01T11:01:26.130Z,38.31
2022-09-01T11:03:56.474Z,36.00
2022-09-01T11:07:14.471Z,35.67
2022-09-01T11:09:45.551Z,36.51
2022-09-01T11:12:44.557Z,37.25
2022-09-01T11:15:36.156Z,38.38
2022-09-01T11:18:09.312Z,38.84
2022-09-01T11:20:39.324Z,37.35
2022-09-01T11:23:12.419Z,36.18
2022-09-01T11:25:43.473Z,35.75
2022-09-01T11:28:37.015Z,36.94
2022-09-01T11:31:23.382Z,38.00
2022-09-01T11:34:01.417Z,37.36
2022-09-01T11:36:34.323Z,36.62
2022-09-01T11:39:17.213Z,38.03
2022-09-01T11:41:58.625Z,38.41
2022-09-01T11:44:36.319Z,36.90
2022-09-01T11:47:10.752Z,37.16
2022-09-01T11:49:50.827Z,35.84
2022-09-01T11:52:21.589Z,35.25
2022-09-01T11:54:51.140Z,35.56
2022-09-01T11:57:29.039Z,35.46
2022-09-01T12:00:00.037Z,34.87
2022-09-01T12:02:36.895Z,35.40
2022-09-01T12:05:25.265Z,35.30
2022-09-01T12:07:54.211Z,34.90
2022-09-01T12:10:34.027Z,33.87
2022-09-01T12:13:05.786Z,33.24
2022-09-01T12:15:37.594Z,33.33
2022-09-01T12:18:18.515Z,33.92
2022-09-01T12:23:26.311Z,34.35
2022-09-01T12:25:58.397Z,35.17
2022-09-01T12:28:30.740Z,36.24
2022-09-01T12:31:02.771Z,33.17
2022-09-01T12:33:37.331Z,34.45
2022-09-01T12:36:19.653Z,34.68
2022-09-01T12:38:49.641Z,32.69
2022-09-01T12:41:36.112Z,30.98
2022-09-01T12:44:34.202Z,32.93
2022-09-01T12:47:06.492Z,32.94
2022-09-01T12:49:48.025Z,32.93
2022-09-01T12:52:27.386Z,32.36
2022-09-01T12:55:47.199Z,32.45
2022-09-01T12:58:05.314Z,33.46
2022-09-01T13:00:39.136Z,34.62
2022-09-01T13:03:13.971Z,35.24
2022-09-01T13:05:43.622Z,34.74
2022-09-01T13:08:16.775Z,34.07
2022-09-01T13:10:47.975Z,34.71
2022-09-01T13:13:18.292Z,34.80
2022-09-01T13:15:50.386Z,35.13
2022-09-01T13:18:21.212Z,35.31
2022-09-01T13:20:51.967Z,35.04
2022-09-01T13:23:21.390Z,34.37
2022-09-01T13:25:50.580Z,34.97
2022-09-01T13:36:48.170Z,31.30
2022-09-01T13:39:21.071Z,32.05
2022-09-01T13:41:50.066Z,31.87
2022-09-01T13:44:21.497Z,30.50
2022-09-01T13:50:04.577Z,31.71
2022-09-01T13:52:29.284Z,31.98
2022-09-01T13:54:57.716Z,33.14
2022-09-01T13:57:26.797Z,34.12
2022-09-01T13:59:59.526Z,35.13
2022-09-01T14:02:28.402Z,35.89
2022-09-01T14:04:56.805Z,35.57
2022-09-01T14:07:25.285Z,35.95
2022-09-01T14:09:54.467Z,36.52
2022-09-01T14:12:22.882Z,36.92
2022-09-01T14:17:39.937Z,35.70
2022-09-01T14:20:13.470Z,34.66
2022-09-01T14:22:41.715Z,34.90
2022-09-01T14:25:11.533Z,34.52
2022-09-01T14:27:39.811Z,34.06
2022-09-01T14:30:12.096Z,33.88
2022-09-01T14:32:40.580Z,31.98
2022-09-01T14:35:09.984Z,31.30
2022-09-01T14:37:38.662Z,29.83
2022-09-01T14:40:10.181Z,27.27
2022-09-01T14:42:48.792Z,25.45
2022-09-01T14:45:18.982Z,24.59
2022-09-01T14:47:48.417Z,23.60
2022-09-01T14:50:22.720Z,24.21
2022-09-01T14:52:54.175Z,26.25
2022-09-01T14:55:25.192Z,27.23
2022-09-01T14:57:55.041Z,25.96
2022-09-01T15:00:24.927Z,25.70
2022-09-01T15:02:56.431Z,26.76
2022-09-01T15:05:25.923Z,27.18
2022-09-01T15:07:54.442Z,27.84
2022-09-01T15:10:42.743Z,25.92
2022-09-01T15:13:11.759Z,24.99
2022-09-01T15:15:40.703Z,24.60
2022-09-01T15:18:09.186Z,25.72
2022-09-01T15:20:48.036Z,27.16
2022-09-01T15:23:19.156Z,28.39
2022-09-01T15:25:48.749Z,29.80
2022-09-01T15:28:17.322Z,30.80
2022-09-01T15:30:46.651Z,31.69
2022-09-01T15:33:16.222Z,32.53
2022-09-01T15:35:45.432Z,33.31
2022-09-01T15:38:17.947Z,34.08
2022-09-01T15:40:48.792Z,34.40
2022-09-01T15:43:26.972Z,32.67
2022-09-01T15:45:57.748Z,31.54
2022-09-01T15:48:28.437Z,31.03
2022-09-01T15:51:26.560Z,29.05
2022-09-01T15:53:57.568Z,26.90
2022-09-01T15:56:27.921Z,25.62
2022-09-01T15:59:02.265Z,26.37
2022-09-01T16:01:33.231Z,28.12
2022-09-01T16:04:03.350Z,29.07
2022-09-01T16:06:34.384Z,29.97
2022-09-01T16:09:02.813Z,30.61
2022-09-01T16:11:36.288Z,31.88
2022-09-01T16:14:05.914Z,31.86
2022-09-01T16:16:52.673Z,31.23
2022-09-01T16:19:35.970Z,30.22
2022-09-01T16:22:15.780Z,28.79
2022-09-01T16:24:50.748Z,27.95
2022-09-01T16:27:24.575Z,28.92
2022-09-01T16:29:56.137Z,30.08
2022-09-01T16:32:28.695Z,31.44
2022-09-01T16:34:58.183Z,32.41
2022-09-01T16:37:40.023Z,33.62
2022-09-01T16:40:15.645Z,34.83
2022-09-01T16:42:50.139Z,35.79
2022-09-01T16:45:42.873Z,35.93
2022-09-01T16:48:20.634Z,36.14
2022-09-01T16:50:55.454Z,36.54
2022-09-01T16:53:44.794Z,36.95
2022-09-01T16:56:18.700Z,37.27
2022-09-01T16:58:51.870Z,37.76
2022-09-01T17:01:38.881Z,37.95
2022-09-01T17:04:18.829Z,38.40
2022-09-01T17:06:59.828Z,39.01
2022-09-01T17:09:34.985Z,39.16
2022-09-01T17:12:22.920Z,39.69
2022-09-01T17:14:57.736Z,39.85
2022-09-01T17:17:37.936Z,40.11
2022-09-01T17:20:08.436Z,40.42
2022-09-01T17:22:38.007Z,40.93
2022-09-01T17:25:10.162Z,40.75
2022-09-01T17:27:47.950Z,41.15
2022-09-01T17:30:19.494Z,41.46
2022-09-01T17:33:08.841Z,41.64
2022-09-01T17:35:58.531Z,41.73
2022-09-01T17:38:33.936Z,41.91
2022-09-01T17:41:12.150Z,41.92
2022-09-01T17:43:54.934Z,42.09
2022-09-01T17:46:34.125Z,42.46
2022-09-01T17:49:08.095Z,42.62
2022-09-01T17:51:42.742Z,42.73
2022-09-01T17:54:18.851Z,42.97
2022-09-01T17:56:53.881Z,43.05
2022-09-01T17:59:29.251Z,43.36
2022-09-01T18:02:05.018Z,43.85
2022-09-01T18:04:45.102Z,44.06
2022-09-01T18:07:26.417Z,44.52
2022-09-01T18:09:56.921Z,44.49
2022-09-01T18:12:29.159Z,44.44
2022-09-01T18:15:04.055Z,44.56
2022-09-01T18:17:37.764Z,44.54
2022-09-01T18:20:11.609Z,44.53
2022-09-01T18:22:45.243Z,44.87
2022-09-01T18:25:18.861Z,44.79
2022-09-01T18:27:47.706Z,44.98
2022-09-01T18:30:26.241Z,45.28
2022-09-01T18:33:09.597Z,45.28
2022-09-01T18:35:43.526Z,45.56
2022-09-01T18:38:31.365Z,45.79
2022-09-01T18:41:14.650Z,45.98
2022-09-01T18:43:45.362Z,46.07
2022-09-01T18:46:17.946Z,46.44
2022-09-01T18:48:58.574Z,46.64
2022-09-01T18:51:42.941Z,46.98
2022-09-01T18:54:18.770Z,47.58
2022-09-01T18:56:52.821Z,47.55
2022-09-01T18:59:36.503Z,48.03
2022-09-01T19:02:15.963Z,48.10
2022-09-01T19:04:45.551Z,48.66
2022-09-01T19:07:23.798Z,48.25
2022-09-01T19:09:58.180Z,48.22
2022-09-01T19:12:32.581Z,48.33
2022-09-01T19:15:07.501Z,49.28
2022-09-01T19:17:56.499Z,49.03
2022-09-01T19:20:30.303Z,49.13
2022-09-01T19:23:02.537Z,49.08
2022-09-01T19:25:33.690Z,49.48
2022-09-01T19:28:06.769Z,49.72
2022-09-01T19:30:38.513Z,49.89
2022-09-01T19:33:08.063Z,49.86
2022-09-01T19:35:36.727Z,49.83
2022-09-01T19:38:08.108Z,50.06
2022-09-01T19:40:38.342Z,49.89
2022-09-01T19:43:10.987Z,49.79
2022-09-01T19:45:47.567Z,50.18
2022-09-01T19:48:21.339Z,50.46
2022-09-01T19:50:51.114Z,50.53
2022-09-01T19:53:30.576Z,50.72
2022-09-01T19:56:04.851Z,50.80
2022-09-01T19:58:44.244Z,51.12
2022-09-01T20:01:15.965Z,51.45
2022-09-01T20:03:49.338Z,51.41
2022-09-01T20:06:25.553Z,51.63
2022-09-01T20:08:56.903Z,51.74
2022-09-01T20:11:36.851Z,51.80
2022-09-01T20:14:17.465Z,51.81
2022-09-01T20:16:49.375Z,51.67
2022-09-01T20:19:24.143Z,51.86
2022-09-01T20:21:53.078Z,52.07
2022-09-01T20:24:28.091Z,52.24
2022-09-01T20:27:03.215Z,52.33
2022-09-01T20:29:42.261Z,52.78
2022-09-01T20:32:14.763Z,52.71
2022-09-01T20:34:46.799Z,52.65
2022-09-01T20:37:20.934Z,52.61
2022-09-01T20:40:03.723Z,52.75
2022-09-01T20:42:43.075Z,53.02
2022-09-01T20:45:14.978Z,53.15
2022-09-01T20:47:49.902Z,53.22
2022-09-01T20:50:19.798Z,53.51
2022-09-01T20:53:10.778Z,53.74
2022-09-01T20:55:41.930Z,53.80
2022-09-01T20:58:22.742Z,53.65
2022-09-01T21:01:14.225Z,54.00
2022-09-01T21:03:56.493Z,54.08
2022-09-01T21:06:35.014Z,54.17
2022-09-01T21:09:08.963Z,54.30
2022-09-01T21:11:40.035Z,54.88
2022-09-01T21:14:29.607Z,55.09
2022-09-01T21:17:09.160Z,55.41
2022-09-01T21:19:46.220Z,56.01
2022-09-01T21:22:21.179Z,55.70
2022-09-01T21:24:51.101Z,55.83
2022-09-01T21:27:22.244Z,55.83
2022-09-01T21:29:55.845Z,56.01
2022-09-01T21:32:24.008Z,56.24
2022-09-01T21:34:53.642Z,56.82
2022-09-01T21:37:23.138Z,56.43
2022-09-01T21:39:54.904Z,56.26
2022-09-01T21:42:25.446Z,56.15
2022-09-01T21:44:56.107Z,56.70
2022-09-01T21:47:24.818Z,56.73
2022-09-01T21:49:53.284Z,57.30
2022-09-01T21:52:21.928Z,57.24
2022-09-01T21:54:50.651Z,57.31
2022-09-01T21:57:20.616Z,57.15
2022-09-01T21:59:49.358Z,57.23
2022-09-01T22:02:19.445Z,57.45
2022-09-01T22:04:49.672Z,57.48
2022-09-01T22:07:20.549Z,57.27
2022-09-01T22:09:49.650Z,57.26
2022-09-01T22:12:18.449Z,57.30
2022-09-01T22:14:46.732Z,57.22
2022-09-01T22:17:15.067Z,57.29
2022-09-01T22:19:43.611Z,57.23
2022-09-01T22:22:14.321Z,57.31
2022-09-01T22:24:42.672Z,57.45
2022-09-01T22:27:11.895Z,57.46
2022-09-01T22:29:40.471Z,57.44
2022-09-01T22:32:09.212Z,57.30
2022-09-01T22:34:38.222Z,57.36
2022-09-01T22:37:07.347Z,57.35
2022-09-01T22:39:35.726Z,57.35
2022-09-01T22:42:07.989Z,57.49
2022-09-01T22:44:36.761Z,57.73
2022-09-01T22:47:06.942Z,57.74
2022-09-01T22:49:35.711Z,57.69
2022-09-01T22:52:04.520Z,57.65
2022-09-01T22:54:33.118Z,57.85
2022-09-01T22:57:02.482Z,58.30
2022-09-01T22:59:31.460Z,58.32
2022-09-01T23:02:01.272Z,58.13
2022-09-01T23:04:31.819Z,57.98
2022-09-01T23:07:00.463Z,57.71
2022-09-01T23:09:28.943Z,57.72
2022-09-01T23:11:57.492Z,57.74
2022-09-01T23:14:26.333Z,57.80
2022-09-01T23:16:54.901Z,57.58
2022-09-01T23:19:24.861Z,57.63
2022-09-01T23:21:55.654Z,57.68
2022-09-01T23:24:24.343Z,57.85
2022-09-01T23:26:52.649Z,58.04
2022-09-01T23:29:21.344Z,57.74
2022-09-01T23:31:49.730Z,57.84
2022-09-01T23:34:18.217Z,57.94
2022-09-01T23:36:46.579Z,57.90
2022-09-01T23:39:14.951Z,58.22
2022-09-01T23:41:43.516Z,58.19
2022-09-01T23:44:12.525Z,57.95
2022-09-01T23:46:44.364Z,58.12
2022-09-01T23:49:15.428Z,58.29
2022-09-01T23:51:45.001Z,58.36
2022-09-01T23:54:14.212Z,58.23
2022-09-01T23:56:42.832Z,58.22
2022-09-01T23:59:11.557Z,58.35
